Data for 11/01/2013

Time Sea-Level Adjusted Pressure Absolute Pressure Temperature Relative Humidity Dew Point   
(mb) (inHg) (mb) (inHg) (C) (F) (%) (C) (F)
00:05 1020 30.12 849 25.07 3.5 38.3 59 -3.8 25.1
00:10 1020 30.12 849 25.07 3.4 38.2 60 -3.6 25.5
00:15 1020 30.12 849 25.07 3.3 37.9 59 -3.9 25
00:20 1020 30.12 849 25.07 3.3 37.9 59 -3.9 25
00:25 1020 30.12 849 25.07 3.3 37.9 60 -3.8 25.1
00:30 1020 30.12 849 25.07 3.2 37.8 59 -4.1 24.7
00:35 1020 30.12 849 25.07 3.2 37.8 58 -4.2 24.5
00:40 1020 30.12 849 25.07 3.3 38 58 -4.2 24.4
00:45 1020 30.12 849 25.07 3.5 38.3 57 -4.3 24.2
00:50 1020 30.12 849 25.07 3.6 38.5 56 -4.3 24.3
00:55 1020 30.12 849 25.07 3.6 38.4 57 -4.3 24.3
01:00 1020 30.12 849 25.07 3.5 38.3 58 -4 24.8
01:05 1020 30.12 849 25.07 3.4 38.1 58 -4 24.8
01:10 1020 30.12 849 25.07 3.2 37.8 59 -4 24.9
01:15 1020 30.12 849 25.07 3.1 37.6 58 -4.3 24.3
01:20 1020 30.12 849 25.07 3.1 37.5 58 -4.4 24
01:25 1020 30.12 849 25.07 3.1 37.6 58 -4.4 24.1
01:30 1020 30.12 849 25.07 3.1 37.5 58 -4.4 24.2
01:35 1020 30.12 849 25.07 2.9 37.3 58 -4.4 24
01:40 1020 30.12 849 25.07 2.8 37.1 58 -4.6 23.8
01:45 1020 30.12 850 25.1 2.7 36.8 59 -4.5 23.9
01:50 1020 30.12 850 25.1 2.5 36.5 60 -4.5 23.9
01:55 1020 30.12 850 25.1 2.2 35.9 61 -4.5 23.9
02:00 1021 30.15 850 25.1 2.1 35.8 61 -4.6 23.7
02:05 1021 30.15 850 25.1 2.1 35.8 61 -4.6 23.8
02:10 1021 30.15 850 25.1 2.1 35.7 62 -4.5 23.8
02:15 1021 30.15 850 25.1 2.1 35.7 62 -4.5 23.9
02:20 1021 30.15 850 25.1 2.1 35.8 61 -4.6 23.8
02:25 1021 30.15 850 25.1 2.4 36.3 60 -4.6 23.8
02:30 1021 30.15 850 25.1 2.7 36.8 59 -4.5 23.9
02:35 1021 30.15 850 25.1 2.9 37.2 58 -4.5 24
02:40 1021 30.15 850 25.1 3.1 37.5 58 -4.3 24.2
02:45 1021 30.15 850 25.1 3.1 37.7 58 -4.3 24.2
02:50 1021 30.15 850 25.1 3.3 37.9 57 -4.4 24
02:55 1021 30.15 850 25.1 3.4 38.2 57 -4.3 24.2
03:00 1021 30.15 850 25.1 3.4 38.2 57 -4.2 24.4
03:05 1021 30.15 850 25.1 3.4 38.1 57 -4.3 24.3
03:10 1021 30.15 850 25.1 3.4 38.1 58 -4.1 24.6
03:15 1021 30.15 850 25.1 3.3 38 58 -4.1 24.6
03:20 1021 30.15 850 25.1 3.4 38 58 -4.1 24.6
03:25 1021 30.15 850 25.1 3.4 38.1 58 -4.1 24.6
03:30 1021 30.15 850 25.1 3.3 38 60 -3.8 25.1
03:35 1021 30.15 850 25.1 3.1 37.6 60 -3.9 24.9
03:40 1021 30.15 850 25.1 3 37.4 60 -4 24.8
03:45 1021 30.15 850 25.1 3 37.4 60 -4 24.8
03:50 1021 30.15 850 25.1 2.9 37.2 60 -4.1 24.7
03:55 1021 30.15 850 25.1 2.8 37.1 60 -4.3 24.3
04:00 1021 30.15 850 25.1 2.8 37 60 -4.3 24.3
04:05 1021 30.15 850 25.1 2.7 36.9 59 -4.4 24.1
04:10 1021 30.15 851 25.13 2.8 37 59 -4.5 23.9
04:15 1021 30.15 851 25.13 2.9 37.2 58 -4.6 23.7
04:20 1021 30.15 851 25.13 3.1 37.6 57 -4.6 23.6
04:25 1022 30.18 851 25.13 3.2 37.8 56 -4.8 23.4
04:30 1022 30.18 851 25.13 3.3 37.9 56 -4.7 23.5
04:35 1022 30.18 851 25.13 3.1 37.7 56 -4.7 23.5
04:40 1022 30.18 851 25.13 3 37.3 57 -4.7 23.5
04:45 1022 30.18 851 25.13 2.9 37.2 58 -4.6 23.6
04:50 1022 30.18 851 25.13 2.7 36.9 58 -4.7 23.5
04:55 1022 30.18 851 25.13 2.7 36.9 58 -4.7 23.6
05:00 1022 30.18 851 25.13 2.5 36.6 59 -4.6 23.7
05:05 1022 30.18 851 25.13 2.4 36.4 60 -4.6 23.7
05:10 1022 30.18 851 25.13 2.5 36.4 60 -4.5 23.8
05:15 1022 30.18 851 25.13 2.5 36.5 60 -4.5 24
05:20 1022 30.18 851 25.13 2.5 36.5 60 -4.4 24
05:25 1022 30.18 851 25.13 2.5 36.4 61 -4.4 24.2
05:30 1022 30.18 851 25.13 2.4 36.2 62 -4.2 24.4
05:35 1022 30.18 851 25.13 2.3 36.2 62 -4.1 24.6
05:40 1022 30.18 851 25.13 2.2 36 63 -4.1 24.6
05:45 1022 30.18 851 25.13 2.2 35.9 63 -4.1 24.6
05:50 1022 30.18 851 25.13 2.2 35.9 63 -4.2 24.4
05:55 1022 30.18 851 25.13 2.2 36 63 -4.2 24.5
06:00 1022 30.18 851 25.13 2.3 36.1 62 -4.2 24.4
06:05 1022 30.18 851 25.13 2.4 36.3 62 -4.2 24.4
06:10 1022 30.18 851 25.13 2.5 36.5 61 -4.3 24.3
06:15 1022 30.18 851 25.13 2.6 36.7 61 -4.2 24.5
06:20 1022 30.18 851 25.13 2.6 36.7 61 -4.1 24.7
06:25 1022 30.18 851 25.13 2.7 36.8 60 -4.3 24.2
06:30 1022 30.18 851 25.13 2.9 37.2 59 -4.3 24.3
06:35 1022 30.18 852 25.16 3 37.5 58 -4.4 24.1
06:40 1022 30.18 851 25.13 3.2 37.8 58 -4.3 24.3
06:45 1022 30.18 851 25.13 3.2 37.8 58 -4.3 24.3
06:50 1022 30.18 852 25.16 3.3 37.9 59 -4.1 24.6
06:55 1022 30.18 852 25.16 3.2 37.7 59 -4 24.7
07:00 1022 30.18 852 25.16 3.1 37.6 59 -4.2 24.5
07:05 1022 30.18 852 25.16 3.2 37.7 59 -4 24.8
07:10 1022 30.18 852 25.16 3 37.5 60 -4 24.9
07:15 1022 30.18 852 25.16 2.9 37.3 61 -3.9 25
07:20 1022 30.18 852 25.16 2.8 37 61 -4 24.8
07:25 1022 30.18 852 25.16 2.7 36.9 61 -4.2 24.5
07:30 1022 30.18 852 25.16 2.7 36.9 60 -4.2 24.5
07:35 1022 30.18 852 25.16 2.8 37 59 -4.4 24.1
07:40 1023 30.21 852 25.16 2.8 37 60 -4.2 24.4
07:45 1023 30.21 852 25.16 2.6 36.7 60 -4.4 24.2
07:50 1023 30.21 852 25.16 2.6 36.8 60 -4.3 24.2
07:55 1023 30.21 852 25.16 2.6 36.6 61 -4.2 24.4
08:00 1023 30.21 852 25.16 2.5 36.4 63 -3.9 25
08:05 1023 30.21 852 25.16 2.3 36.1 64 -3.8 25.1
08:10 1023 30.21 852 25.16 2.2 35.9 63 -4 24.7
08:15 1023 30.21 852 25.16 2.2 35.9 64 -3.9 25
08:20 1023 30.21 852 25.16 2.2 36 62 -4.4 24.1
08:25 1023 30.21 852 25.16 2.4 36.3 62 -4.2 24.5
08:30 1023 30.21 852 25.16 3.2 37.8 59 -4.1 24.6
08:35 1023 30.21 852 25.16 3.6 38.4 58 -3.9 25
08:40 1023 30.21 852 25.16 3.7 38.6 55 -4.7 23.6
08:45 1023 30.21 852 25.16 4.3 39.7 54 -4.3 24.3
08:50 1023 30.21 852 25.16 4.8 40.7 52 -4.2 24.4
08:55 1023 30.21 852 25.16 5.2 41.3 51 -4.2 24.5
09:00 1023 30.21 852 25.16 5.1 41.2 51 -4.1 24.7
09:05 1023 30.21 852 25.16 5.6 42.1 48 -4.5 24
09:10 1023 30.21 853 25.19 5.9 42.7 49 -4 24.9
09:15 1023 30.21 853 25.19 5.7 42.3 49 -4.1 24.6
09:20 1023 30.21 852 25.16 5.7 42.3 49 -4.2 24.4
09:25 1023 30.21 852 25.16 5.7 42.3 51 -3.8 25.2
09:30 1023 30.21 852 25.16 5.5 41.9 49 -4.2 24.4
09:35 1023 30.21 853 25.19 5.8 42.4 49 -4.1 24.7
09:40 1023 30.21 853 25.19 6.3 43.3 46 -4.5 23.9
09:45 1023 30.21 853 25.19 6.9 44.4 46 -4 24.8
09:50 1023 30.21 852 25.16 6.5 43.7 47 -4.1 24.6
09:55 1023 30.21 852 25.16 6.2 43.2 46 -4.4 24
10:00 1023 30.21 852 25.16 6.9 44.3 44 -4.5 23.9
10:05 1023 30.21 852 25.16 7 44.5 45 -4 24.7
10:10 1023 30.21 852 25.16 6.8 44.2 46 -4 24.8
10:15 1023 30.21 852 25.16 7.4 45.4 45 -3.8 25.2
10:20 1023 30.21 852 25.16 7.3 45.2 44 -4.1 24.6
10:25 1023 30.21 852 25.16 6.8 44.2 47 -3.7 25.3
10:30 1023 30.21 852 25.16 6.9 44.4 46 -4.1 24.7
10:35 1023 30.21 852 25.16 7.5 45.4 44 -4.1 24.7
10:40 1023 30.21 852 25.16 7.4 45.3 45 -3.9 25.1
10:45 1023 30.21 852 25.16 7.5 45.4 43 -4.2 24.5
10:50 1023 30.21 852 25.16 8.3 47 42 -3.9 25
10:55 1023 30.21 852 25.16 8.1 46.6 41 -4.3 24.2
11:00 1023 30.21 852 25.16 8.2 46.8 41 -4.2 24.5
11:05 1023 30.21 852 25.16 8.4 47 42 -3.9 24.9
11:10 1023 30.21 852 25.16 8.2 46.8 42 -3.9 25
11:15 1023 30.21 852 25.16 8.2 46.7 42 -3.8 25.1
11:20 1023 30.21 852 25.16 7.4 45.3 44 -3.9 25
11:25 1023 30.21 852 25.16 7.4 45.3 45 -3.8 25.1
11:30 1023 30.21 852 25.16 7.8 46 44 -3.9 25.1
11:35 1023 30.21 852 25.16 8 46.3 44 -3.6 25.6
11:40 1023 30.21 852 25.16 7.8 46 45 -3.4 25.9
11:45 1023 30.21 852 25.16 7.5 45.4 46 -3.5 25.7
11:50 1023 30.21 852 25.16 7.6 45.8 43 -4.2 24.5
11:55 1023 30.21 852 25.16 8.2 46.7 41 -4.2 24.5
12:00 1022 30.18 852 25.16 8.4 47.2 41 -3.9 24.9
12:05 1022 30.18 852 25.16 9.1 48.4 39 -4.1 24.7
12:10 1022 30.18 851 25.13 9.9 49.8 38 -3.9 24.9
12:15 1022 30.18 851 25.13 10.2 50.3 34 -5.1 22.8
12:20 1022 30.18 851 25.13 10.3 50.5 33 -5.2 22.7
12:25 1022 30.18 851 25.13 10.5 50.8 31 -6 21.2
12:30 1022 30.18 851 25.13 10.5 50.8 30 -6.2 20.9
12:35 1022 30.18 851 25.13 10.4 50.7 34 -4.9 23.1
12:40 1022 30.18 851 25.13 10.2 50.4 34 -5.1 22.9
12:45 1022 30.18 851 25.13 10 50.1 34 -4.9 23.1
12:50 1022 30.18 851 25.13 10.3 50.6 33 -5.1 22.8
12:55 1022 30.18 851 25.13 10.5 50.9 32 -5.6 21.9
13:00 1022 30.18 851 25.13 11 51.8 29 -6.2 20.9
13:05 1022 30.18 851 25.13 10.8 51.4 30 -6.1 21
13:10 1022 30.18 851 25.13 10.8 51.5 31 -5.8 21.6
13:15 1022 30.18 851 25.13 10.7 51.3 32 -5.5 22.1
13:20 1022 30.18 851 25.13 10.3 50.6 32 -5.6 21.9
13:25 1022 30.18 851 25.13 10.5 50.8 33 -5.3 22.5
13:30 1022 30.18 851 25.13 10.7 51.2 33 -4.9 23.2
13:35 1022 30.18 851 25.13 10 49.9 34 -5 23
13:40 1022 30.18 851 25.13 9.9 49.7 34 -5.2 22.6
13:45 1022 30.18 851 25.13 10.8 51.5 32 -5 23
13:50 1022 30.18 851 25.13 11 51.8 33 -4.8 23.4
13:55 1021 30.15 851 25.13 10.6 51.1 33 -5.1 22.8
14:00 1021 30.15 851 25.13 10.3 50.5 33 -5.2 22.6
14:05 1021 30.15 851 25.13 10.8 51.5 33 -4.9 23.1
14:10 1021 30.15 851 25.13 11.4 52.5 31 -5 23
14:15 1021 30.15 851 25.13 11.6 52.8 31 -5.2 22.7
14:20 1021 30.15 851 25.13 11.3 52.3 32 -4.9 23.1
14:25 1021 30.15 850 25.1 10.9 51.7 32 -5.2 22.6
14:30 1021 30.15 850 25.1 11.6 52.8 30 -5.4 22.3
14:35 1021 30.15 850 25.1 11.5 52.8 31 -5.2 22.7
14:40 1021 30.15 850 25.1 11.2 52.2 30 -5.5 22.1
14:45 1021 30.15 850 25.1 11.1 52.1 31 -5.2 22.7
14:50 1021 30.15 850 25.1 11.1 52 31 -5.5 22
14:55 1021 30.15 850 25.1 10.8 51.5 31 -5.4 22.3
15:00 1021 30.15 850 25.1 11.1 52 30 -5.7 21.8
15:05 1021 30.15 850 25.1 11.3 52.3 30 -5.6 21.9
15:10 1021 30.15 850 25.1 11 51.8 31 -5.3 22.5
15:15 1021 30.15 850 25.1 10.7 51.3 30 -6.1 21
15:20 1021 30.15 850 25.1 11 51.7 31 -5.7 21.7
15:25 1021 30.15 850 25.1 10.5 51 31 -6 21.1
15:30 1021 30.15 850 25.1 11 51.9 30 -6 21.2
15:35 1021 30.15 850 25.1 11.1 51.9 30 -6 21.2
15:40 1021 30.15 850 25.1 11 51.8 30 -5.8 21.5
15:45 1021 30.15 850 25.1 10.6 51.2 30 -6.1 21
15:50 1021 30.15 850 25.1 10.7 51.2 30 -6.1 21
15:55 1021 30.15 850 25.1 11.1 52 30 -5.8 21.5
16:00 1021 30.15 850 25.1 11.2 52.2 30 -5.7 21.7
16:05 1021 30.15 850 25.1 11.3 52.3 29 -6 21.3
16:10 1021 30.15 850 25.1 11.4 52.5 29 -5.8 21.6
16:15 1021 30.15 850 25.1 11.3 52.3 30 -5.8 21.5
16:20 1021 30.15 850 25.1 10.7 51.2 31 -6 21.3
16:25 1021 30.15 850 25.1 10.5 50.8 31 -6.1 21.1
16:30 1021 30.15 850 25.1 10.6 51 30 -6.3 20.7
16:35 1021 30.15 850 25.1 10.5 51 30 -6.2 20.8
16:40 1021 30.15 850 25.1 10.5 50.9 30 -6.1 21
16:45 1021 30.15 850 25.1 10.2 50.3 31 -6 21.2
16:50 1021 30.15 850 25.1 9.6 49.2 33 -5.9 21.4
16:55 1021 30.15 850 25.1 9.2 48.5 34 -5.8 21.5
17:00 1021 30.15 850 25.1 9 48.2 35 -5.7 21.8
17:05 1021 30.15 850 25.1 8.9 48.1 35 -5.6 21.9
17:10 1021 30.15 850 25.1 8.7 47.6 35 -5.8 21.6
17:15 1021 30.15 850 25.1 8.5 47.3 35 -5.9 21.3
17:20 1021 30.15 850 25.1 8.4 47 36 -5.7 21.8
17:25 1021 30.15 850 25.1 8.1 46.6 38 -5.5 22.1
17:30 1021 30.15 850 25.1 7.7 45.8 40 -5 22.9
17:35 1021 30.15 850 25.1 7 44.6 42 -4.9 23.2
17:40 1021 30.15 850 25.1 6.6 43.8 44 -4.8 23.3
17:45 1021 30.15 850 25.1 6.7 44 43 -4.9 23.2
17:50 1021 30.15 850 25.1 6.5 43.8 45 -4.4 24
17:55 1021 30.15 850 25.1 5.9 42.6 47 -4.5 23.9
18:00 1021 30.15 850 25.1 5.6 42.1 48 -4.5 23.9
18:05 1021 30.15 850 25.1 5.3 41.5 49 -4.5 23.9
18:10 1021 30.15 850 25.1 5.2 41.4 50 -4.4 24.1
18:15 1021 30.15 850 25.1 5.2 41.3 49 -4.6 23.8
18:20 1021 30.15 850 25.1 4.9 40.8 50 -4.6 23.8
18:25 1021 30.15 850 25.1 4.7 40.5 51 -4.7 23.6
18:30 1021 30.15 850 25.1 4.5 40.1 52 -4.5 23.9
18:35 1021 30.15 850 25.1 4.2 39.5 53 -4.6 23.7
18:40 1021 30.15 850 25.1 4 39.2 54 -4.6 23.8
18:45 1021 30.15 850 25.1 3.7 38.7 54 -4.7 23.6
18:50 1021 30.15 850 25.1 3.6 38.4 55 -4.8 23.4
18:55 1021 30.15 850 25.1 3.5 38.3 55 -4.8 23.4
19:00 1021 30.15 850 25.1 3.5 38.3 54 -4.8 23.3
19:05 1021 30.15 850 25.1 3.5 38.3 55 -4.7 23.6
19:10 1021 30.15 851 25.13 3.5 38.2 55 -4.7 23.6
19:15 1021 30.15 851 25.13 3.4 38 55 -4.7 23.5
19:20 1021 30.15 850 25.1 3.2 37.8 56 -4.7 23.5
19:25 1021 30.15 850 25.1 3.1 37.7 57 -4.7 23.6
19:30 1021 30.15 850 25.1 3.1 37.6 56 -4.7 23.5
19:35 1021 30.15 850 25.1 3 37.4 57 -4.7 23.5
19:40 1021 30.15 850 25.1 2.8 37 58 -4.7 23.5
19:45 1021 30.15 850 25.1 2.7 36.8 58 -4.8 23.3
19:50 1021 30.15 850 25.1 2.6 36.7 58 -4.7 23.5
19:55 1021 30.15 850 25.1 2.4 36.3 60 -4.7 23.6
20:00 1021 30.15 850 25.1 2.3 36.2 59 -4.9 23.2
20:05 1021 30.15 850 25.1 2.6 36.6 58 -4.9 23.2
20:10 1021 30.15 850 25.1 2.7 36.8 58 -4.8 23.4
20:15 1021 30.15 850 25.1 2.7 36.9 58 -4.7 23.5
20:20 1021 30.15 850 25.1 2.5 36.5 59 -4.7 23.6
20:25 1021 30.15 850 25.1 2.2 36 60 -4.8 23.4
20:30 1021 30.15 850 25.1 2.2 35.9 60 -4.8 23.4
20:35 1021 30.15 850 25.1 2.2 35.9 60 -4.9 23.2
20:40 1021 30.15 850 25.1 2.3 36.1 59 -4.8 23.4
20:45 1021 30.15 850 25.1 2.2 35.9 60 -4.8 23.4
20:50 1021 30.15 850 25.1 2.2 35.9 60 -4.8 23.4
20:55 1021 30.15 850 25.1 2.3 36.1 59 -4.9 23.2
21:00 1021 30.15 850 25.1 2.3 36.1 60 -4.7 23.5
21:05 1021 30.15 850 25.1 2.1 35.8 61 -4.7 23.5
21:10 1021 30.15 850 25.1 2.1 35.9 59 -4.9 23.1
21:15 1021 30.15 850 25.1 2.3 36.1 59 -4.9 23.2
21:20 1021 30.15 850 25.1 2.4 36.3 60 -4.7 23.6
21:25 1021 30.15 850 25.1 2.8 37.1 57 -5 23.1
21:30 1021 30.15 850 25.1 3.1 37.6 56 -4.8 23.3
21:35 1021 30.15 851 25.13 2.9 37.3 56 -5 23.1
21:40 1021 30.15 851 25.13 2.9 37.3 56 -5 22.9
21:45 1021 30.15 851 25.13 3.1 37.6 55 -5 23.1
21:50 1021 30.15 851 25.13 3.4 38.1 55 -4.8 23.3
21:55 1021 30.15 851 25.13 2.8 37.1 58 -4.6 23.8
22:00 1021 30.15 851 25.13 2.3 36.2 59 -4.9 23.2
22:05 1021 30.15 851 25.13 2.2 36 60 -4.7 23.6
22:10 1021 30.15 851 25.13 1.9 35.4 61 -4.9 23.2
22:15 1021 30.15 850 25.1 1.6 34.8 63 -4.7 23.5
22:20 1021 30.15 850 25.1 1.2 34.1 65 -4.7 23.5
22:25 1021 30.15 850 25.1 1.3 34.3 64 -4.9 23.2
22:30 1021 30.15 850 25.1 1.4 34.5 64 -4.6 23.6
22:35 1021 30.15 850 25.1 1.3 34.4 64 -4.7 23.6
22:40 1021 30.15 850 25.1 1.4 34.5 62 -5 22.9
22:45 1021 30.15 850 25.1 1.2 34.1 64 -4.9 23.1
22:50 1021 30.15 850 25.1 1 33.8 64 -5.1 22.8
22:55 1021 30.15 850 25.1 0.7 33.3 66 -4.9 23.2
23:00 1021 30.15 850 25.1 0.5 32.9 66 -5.2 22.6
23:05 1021 30.15 850 25.1 0.5 32.9 67 -5 23
23:10 1021 30.15 850 25.1 0.3 32.6 67 -5.1 22.9
23:15 1021 30.15 850 25.1 0.2 32.4 67 -5.1 22.8
23:20 1021 30.15 850 25.1 0.3 32.6 67 -5.1 22.8
23:25 1021 30.15 850 25.1 0.4 32.8 66 -5.1 22.7
23:30 1021 30.15 850 25.1 0.7 33.2 64 -5.3 22.5
23:35 1020 30.12 850 25.1 1 33.7 64 -5.1 22.7
23:40 1020 30.12 850 25.1 1 33.9 63 -5.2 22.6
23:45 1020 30.12 850 25.1 0.9 33.6 64 -5.1 22.9
23:50 1020 30.12 850 25.1 0.8 33.4 65 -5.1 22.9
23:55 1020 30.12 849 25.07 0.8 33.5 65 -5 22.9
24:00 1020 30.12 849 25.07 0.7 33.2 66 -5 23